Time;durP1;ratioP1;P1;durP2;ratioP2;P2;SDS_P1;SDS_P2;PMS_P1;PMS_P2;Temp;Humidity;BMP_temperature;BMP_pressure;BME280_temperature;BME280_humidity;BME280_pressure;Samples;Min_cycle;Max_cycle;Signal;HPM_P1;HPM_P2
2022/03/29 00:00:54;;;;;;;16.70;4.30;;;;;;;2.59;54.59;99118.73;25081;1313;3069683;-63
2022/03/29 00:03:22;;;;;;;18.80;4.30;;;;;;;2.44;55.01;99116.10;25146;1312;3026562;-62
2022/03/29 00:05:53;;;;;;;8.00;3.40;;;;;;;2.38;55.14;99114.41;25171;1313;3051609;-61
2022/03/29 00:08:23;;;;;;;14.30;4.50;;;;;;;2.46;54.94;99104.48;25154;1313;3026907;-62
2022/03/29 00:10:52;;;;;;;20.70;4.30;;;;;;;2.44;54.84;99100.21;25102;1312;3026456;-63
2022/03/29 00:13:41;;;;;;;20.50;4.70;;;;;;;2.44;55.17;99107.46;25140;1312;3051526;-64
2022/03/29 00:16:10;;;;;;;12.80;3.80;;;;;;;2.38;55.12;99097.29;25110;1312;3026986;-60
2022/03/29 00:18:57;;;;;;;12.70;3.70;;;;;;;2.33;55.41;99101.97;25131;1313;3056168;-61
2022/03/29 00:21:27;;;;;;;12.60;3.00;;;;;;;2.37;55.35;99097.17;25143;1312;3026874;-61
2022/03/29 00:23:56;;;;;;;15.40;3.90;;;;;;;2.27;55.89;99087.98;25096;1313;3049517;-61
2022/03/29 00:26:26;;;;;;;15.50;2.90;;;;;;;2.34;55.90;99090.16;25097;1312;3026664;-60
2022/03/29 00:28:56;;;;;;;16.30;3.80;;;;;;;2.33;55.91;99077.41;25142;1311;3027036;-61
2022/03/29 00:31:25;;;;;;;11.10;3.20;;;;;;;2.40;55.58;99081.16;25143;1312;3026904;-62
2022/03/29 00:33:54;;;;;;;23.20;4.00;;;;;;;2.31;56.39;99070.56;25143;1312;3054399;-61
2022/03/29 00:36:23;;;;;;;14.90;4.90;;;;;;;2.29;56.38;99063.20;25141;1312;3026655;-61
2022/03/29 00:38:54;;;;;;;15.70;3.50;;;;;;;2.24;56.59;99085.48;25124;1312;3050816;-61
2022/03/29 00:41:23;;;;;;;15.40;3.60;;;;;;;2.17;56.71;99060.65;25164;1313;3026519;-60
2022/03/29 00:43:52;;;;;;;11.60;2.70;;;;;;;2.23;56.44;99072.73;25128;1313;3026702;-64
2022/03/29 00:46:21;;;;;;;17.80;3.90;;;;;;;2.14;56.79;99066.27;25146;1312;3026605;-62
2022/03/29 00:48:52;;;;;;;15.10;3.60;;;;;;;2.12;56.86;99068.23;25124;1312;3052905;-62
2022/03/29 00:51:21;;;;;;;12.00;2.90;;;;;;;2.04;57.32;99070.05;25171;1313;3026712;-62
2022/03/29 00:53:56;;;;;;;14.80;3.60;;;;;;;2.04;57.30;99071.44;25091;1312;3050135;-62
2022/03/29 00:56:25;;;;;;;16.40;3.90;;;;;;;1.98;57.48;99071.29;25142;1313;3026809;-60
2022/03/29 00:58:54;;;;;;;11.30;3.10;;;;;;;1.93;57.54;99063.16;25137;1313;3057509;-61
2022/03/29 01:01:24;;;;;;;9.00;3.10;;;;;;;1.90;57.87;99069.11;25083;1312;3026409;-62
2022/03/29 01:03:54;;;;;;;17.80;3.00;;;;;;;1.93;57.69;99061.75;25110;1312;3027734;-62
2022/03/29 01:06:24;;;;;;;13.70;4.60;;;;;;;1.90;57.95;99059.81;25097;1313;3026883;-62
2022/03/29 01:08:54;;;;;;;12.40;3.50;;;;;;;1.81;58.29;99063.18;25132;1313;3026438;-62
2022/03/29 01:11:26;;;;;;;15.80;3.30;;;;;;;1.77;58.56;99052.05;25149;1313;3027403;-62
2022/03/29 01:13:55;;;;;;;8.20;2.60;;;;;;;1.84;58.50;99052.03;25135;1313;3026272;-62
2022/03/29 01:19:13;;;;;;;18.50;3.20;;;;;;;1.75;59.28;99045.56;25133;1312;3049877;-61
2022/03/29 01:21:43;;;;;;;17.30;2.60;;;;;;;1.79;59.37;99037.50;25119;1313;3026401;-60
2022/03/29 01:24:12;;;;;;;14.70;3.70;;;;;;;1.80;59.70;99044.56;25055;1315;3026458;-61
2022/03/29 01:26:41;;;;;;;21.10;3.50;;;;;;;1.84;59.74;99040.29;25129;1313;3049541;-61
2022/03/29 01:29:10;;;;;;;20.30;2.70;;;;;;;1.91;59.51;99032.83;25081;1312;3026624;-62
2022/03/29 01:31:42;;;;;;;14.20;3.10;;;;;;;1.79;60.58;99024.38;25097;1313;3070385;-60
2022/03/29 01:34:11;;;;;;;10.90;3.00;;;;;;;1.80;60.33;99034.89;25181;1311;3026196;-62
2022/03/29 01:36:41;;;;;;;15.90;2.80;;;;;;;1.77;60.67;99027.40;25148;1313;3050459;-61
2022/03/29 01:39:11;;;;;;;7.00;2.40;;;;;;;1.76;60.88;99041.23;25180;1313;3026528;-61
2022/03/29 01:41:40;;;;;;;19.90;3.40;;;;;;;1.82;60.67;99034.46;25086;1312;3026676;-62
2022/03/29 01:44:10;;;;;;;13.70;3.10;;;;;;;1.76;61.26;99034.65;25201;1313;3026547;-62
2022/03/29 01:46:39;;;;;;;12.20;2.90;;;;;;;1.76;61.23;99042.97;25128;1313;3069249;-61
2022/03/29 01:49:10;;;;;;;18.60;4.20;;;;;;;1.78;61.38;99037.71;25158;1313;3026089;-62
2022/03/29 01:51:40;;;;;;;26.90;4.90;;;;;;;1.76;61.51;99025.01;25092;1313;3053536;-60
2022/03/29 01:54:09;;;;;;;18.60;4.70;;;;;;;1.81;61.41;99022.25;25143;1313;3027746;-60
2022/03/29 01:56:42;;;;;;;13.10;4.30;;;;;;;1.83;61.45;99024.95;25150;1313;3026408;-61
2022/03/29 01:59:14;;;;;;;11.00;3.70;;;;;;;1.87;61.30;99021.20;25240;1313;3026248;-62
2022/03/29 02:01:44;;;;;;;11.80;3.80;;;;;;;1.78;61.95;99019.94;25179;1313;3069091;-61
2022/03/29 02:04:13;;;;;;;19.60;3.80;;;;;;;1.75;61.80;99018.65;25222;1313;3027409;-61
2022/03/29 02:06:44;;;;;;;20.10;4.30;;;;;;;1.77;62.20;99016.66;25157;1313;3026278;-61
2022/03/29 02:09:13;;;;;;;19.20;3.90;;;;;;;1.76;62.58;99000.98;25101;1313;3026530;-61
2022/03/29 02:11:44;;;;;;;24.90;3.90;;;;;;;1.78;62.27;99006.80;25184;1316;3028488;-62
2022/03/29 02:14:14;;;;;;;20.30;4.20;;;;;;;1.73;62.89;99006.77;25103;1313;3026350;-61
2022/03/29 02:16:43;;;;;;;19.80;4.30;;;;;;;1.73;62.83;98998.66;25261;1313;3026496;-61
2022/03/29 02:19:15;;;;;;;17.80;4.50;;;;;;;1.81;62.60;98993.42;25143;1313;3057867;-61
2022/03/29 02:21:46;;;;;;;32.10;4.10;;;;;;;1.76;62.97;98998.05;25116;1313;3027145;-60
2022/03/29 02:24:15;;;;;;;10.30;3.40;;;;;;;1.74;62.97;98993.44;25148;1313;3028487;-61
2022/03/29 02:26:44;;;;;;;15.60;3.80;;;;;;;1.75;63.15;98998.07;25113;1313;3058252;-61
2022/03/29 02:29:13;;;;;;;15.90;4.10;;;;;;;1.83;63.01;98995.42;25127;1311;3026444;-61
2022/03/29 02:31:42;;;;;;;19.30;3.80;;;;;;;1.79;63.04;99001.75;25193;1313;3052960;-61
2022/03/29 02:34:11;;;;;;;14.40;3.30;;;;;;;1.75;63.44;98987.04;25126;1313;3028119;-60
2022/03/29 02:36:40;;;;;;;15.80;3.90;;;;;;;1.78;63.70;98986.42;25141;1313;3054205;-61
2022/03/29 02:39:09;;;;;;;11.90;3.80;;;;;;;1.75;63.89;98982.72;25108;1313;3027193;-60
2022/03/29 02:41:39;;;;;;;18.20;3.50;;;;;;;1.86;63.51;98992.73;25172;1313;3049095;-62
2022/03/29 02:44:08;;;;;;;15.00;4.00;;;;;;;1.68;64.06;98993.83;25128;1313;3026697;-63
2022/03/29 02:46:37;;;;;;;12.10;3.40;;;;;;;1.63;64.59;98985.67;25144;1313;3068369;-62
2022/03/29 02:49:07;;;;;;;12.90;3.10;;;;;;;1.59;64.78;98989.13;25182;1313;3026440;-60
2022/03/29 02:51:37;;;;;;;16.80;3.70;;;;;;;1.67;64.67;98988.31;25189;1313;3028091;-64
2022/03/29 02:54:08;;;;;;;24.70;4.70;;;;;;;1.67;64.59;98982.62;25156;1313;3030135;-62
2022/03/29 02:56:37;;;;;;;11.00;3.40;;;;;;;1.79;64.07;98983.63;25183;1312;3026554;-62
2022/03/29 02:59:07;;;;;;;22.40;4.70;;;;;;;1.61;65.02;98976.27;25160;1313;3028633;-62
2022/03/29 03:01:36;;;;;;;22.60;4.60;;;;;;;1.56;65.33;98976.26;25125;1313;3026418;-62
2022/03/29 03:04:07;;;;;;;13.80;4.20;;;;;;;1.59;65.29;98985.81;25125;1312;3058945;-61
2022/03/29 03:06:36;;;;;;;17.80;3.70;;;;;;;1.59;65.60;98975.80;25154;1313;3026737;-62
2022/03/29 03:09:05;;;;;;;13.50;3.20;;;;;;;1.56;65.82;98977.29;25116;1312;3026720;-61
2022/03/29 03:11:37;;;;;;;9.00;3.20;;;;;;;1.49;66.09;98975.60;25169;1316;3055727;-61
2022/03/29 03:14:06;;;;;;;19.00;3.40;;;;;;;1.55;66.00;98971.95;25199;1316;3026711;-62
2022/03/29 03:16:36;;;;;;;13.60;2.70;;;;;;;1.63;65.72;98963.60;25194;1313;3026695;-63
2022/03/29 03:19:05;;;;;;;17.10;3.20;;;;;;;1.51;66.16;98963.11;25151;1313;3026465;-61
2022/03/29 03:21:34;;;;;;;19.00;3.70;;;;;;;1.54;66.09;98961.64;25188;1313;3050700;-63
2022/03/29 03:24:04;;;;;;;15.70;3.30;;;;;;;1.58;66.12;98962.89;25152;1312;3026817;-61
2022/03/29 03:26:33;;;;;;;19.90;3.40;;;;;;;1.55;66.46;98957.81;25175;1313;3057315;-61
2022/03/29 03:29:04;;;;;;;15.80;4.60;;;;;;;1.59;66.42;98956.62;25250;1313;3027482;-62
2022/03/29 03:31:34;;;;;;;12.80;2.80;;;;;;;1.66;66.10;98966.09;25169;1313;3026871;-63
2022/03/29 03:34:03;;;;;;;20.20;3.50;;;;;;;1.69;65.77;98965.46;25179;1313;3026454;-62
2022/03/29 03:36:33;;;;;;;15.40;3.30;;;;;;;1.71;66.04;98960.75;25128;1313;3050405;-62
2022/03/29 03:39:03;;;;;;;16.30;3.20;;;;;;;1.72;65.78;98968.31;25168;1313;3026403;-62
2022/03/29 03:41:33;;;;;;;17.80;3.00;;;;;;;1.62;66.39;98962.92;25175;1313;3058172;-60
2022/03/29 03:44:02;;;;;;;13.70;2.90;;;;;;;1.66;66.42;98968.50;25114;1313;3026223;-61
2022/03/29 03:46:31;;;;;;;10.20;2.80;;;;;;;1.68;66.19;98964.81;25149;1313;3053812;-62
2022/03/29 03:49:01;;;;;;;21.20;3.10;;;;;;;1.67;66.52;98954.48;25180;1313;3026603;-60
2022/03/29 03:51:30;;;;;;;20.60;3.30;;;;;;;1.78;66.09;98958.61;25092;1313;3052866;-61
2022/03/29 03:53:59;;;;;;;9.90;2.30;;;;;;;1.76;66.43;98961.28;25180;1312;3029965;-61
2022/03/29 03:56:28;;;;;;;13.80;2.40;;;;;;;1.88;65.76;98957.44;25132;1313;3026337;-62
2022/03/29 03:58:57;;;;;;;25.80;3.00;;;;;;;1.78;66.30;98958.81;25146;1316;3054377;-62
2022/03/29 04:01:27;;;;;;;32.40;3.90;;;;;;;1.84;66.12;98957.55;25174;1313;3028719;-63
2022/03/29 04:03:56;;;;;;;11.10;2.80;;;;;;;1.86;66.07;98970.98;25100;1313;3026360;-64
2022/03/29 04:06:25;;;;;;;25.90;3.40;;;;;;;1.87;66.10;98960.07;25151;1313;3053984;-61
2022/03/29 04:08:54;;;;;;;19.10;3.00;;;;;;;1.87;66.14;98957.45;25138;1313;3026394;-61
2022/03/29 04:11:23;;;;;;;19.10;2.80;;;;;;;1.96;65.99;98968.55;25143;1313;3026250;-62
2022/03/29 04:13:54;;;;;;;12.50;3.10;;;;;;;1.94;66.00;98962.08;25164;1313;3054690;-62
2022/03/29 04:16:23;;;;;;;19.70;3.40;;;;;;;1.91;66.26;98955.41;25138;1313;3026480;-61
2022/03/29 04:18:52;;;;;;;17.90;4.30;;;;;;;2.00;65.89;98960.48;25104;1313;3026909;-60
2022/03/29 04:21:21;;;;;;;11.30;2.30;;;;;;;1.86;66.38;98969.74;25136;1316;3053672;-62
2022/03/29 04:23:50;;;;;;;16.10;3.60;;;;;;;1.92;66.58;98955.56;25128;1313;3028811;-61
2022/03/29 04:26:20;;;;;;;21.00;3.50;;;;;;;1.97;66.54;98962.48;25127;1313;3026625;-61
2022/03/29 04:28:50;;;;;;;22.50;3.30;;;;;;;1.99;66.41;98974.67;25095;1316;3027312;-61
2022/03/29 04:31:22;;;;;;;18.00;3.20;;;;;;;2.02;66.50;98965.42;25195;1313;3026450;-61
2022/03/29 04:33:51;;;;;;;11.60;2.80;;;;;;;2.08;66.41;98965.73;25161;1313;3025906;-63
2022/03/29 04:36:20;;;;;;;19.00;3.60;;;;;;;2.10;66.40;98969.66;25100;1313;3026773;-62
2022/03/29 04:38:49;;;;;;;18.10;2.90;;;;;;;2.12;66.70;98968.20;25169;1313;3052312;-62
2022/03/29 04:41:22;;;;;;;12.30;2.80;;;;;;;2.25;66.30;98963.45;25103;1313;3026599;-61
2022/03/29 04:43:51;;;;;;;24.80;3.30;;;;;;;2.42;65.70;98960.94;25158;1316;3026630;-63
2022/03/29 04:46:21;;;;;;;25.40;3.10;;;;;;;2.36;65.95;98956.32;25135;1313;3026688;-61
2022/03/29 04:48:52;;;;;;;15.50;3.10;;;;;;;2.42;66.06;98964.41;25143;1313;3026466;-63
2022/03/29 04:51:21;;;;;;;22.00;3.10;;;;;;;2.48;65.83;98965.58;25148;1313;3068837;-63
2022/03/29 04:53:51;;;;;;;8.70;2.20;;;;;;;2.55;65.93;98968.42;25168;1313;3026590;-62
2022/03/29 04:56:21;;;;;;;22.10;3.60;;;;;;;2.60;65.83;98976.21;25161;1313;3026393;-61
2022/03/29 04:58:50;;;;;;;13.20;2.70;;;;;;;2.72;65.69;98962.13;25126;1313;3026872;-61
2022/03/29 05:01:20;;;;;;;29.50;2.90;;;;;;;2.76;65.68;98964.58;25145;1313;3051145;-61
2022/03/29 05:03:49;;;;;;;15.40;2.50;;;;;;;2.87;65.49;98956.41;25142;1313;3026327;-62
2022/03/29 05:06:19;;;;;;;15.30;3.40;;;;;;;2.93;65.52;98959.80;25146;1313;3067678;-62
2022/03/29 05:08:48;;;;;;;13.30;2.60;;;;;;;3.12;64.83;98958.92;25125;1316;3026847;-64
2022/03/29 05:11:18;;;;;;;15.60;3.60;;;;;;;3.01;65.14;98963.80;25117;1310;3026887;-61
2022/03/29 05:13:49;;;;;;;21.40;3.50;;;;;;;3.18;64.93;98951.42;25115;1313;3026651;-63
2022/03/29 05:16:18;;;;;;;14.70;3.60;;;;;;;3.25;65.15;98952.89;24765;1313;3546040;-63
2022/03/29 05:18:49;;;;;;;21.70;3.10;;;;;;;3.30;64.98;98948.02;25089;1313;3026172;-60
2022/03/29 05:21:18;;;;;;;18.00;3.60;;;;;;;3.40;64.87;98953.34;25096;1313;3026348;-61
2022/03/29 05:23:47;;;;;;;16.90;3.10;;;;;;;3.49;64.59;98946.22;25116;1313;3026793;-62
2022/03/29 05:26:17;;;;;;;24.50;3.60;;;;;;;3.62;64.17;98946.56;25169;1313;3026057;-62
2022/03/29 05:28:46;;;;;;;19.80;3.00;;;;;;;3.69;63.99;98942.13;25100;1312;3026788;-62
2022/03/29 05:31:15;;;;;;;22.40;3.10;;;;;;;3.78;63.96;98950.59;25154;1313;3053689;-62
2022/03/29 05:33:44;;;;;;;17.10;2.70;;;;;;;3.84;63.96;98943.05;25136;1313;3026453;-62
2022/03/29 05:36:13;;;;;;;29.40;3.80;;;;;;;3.94;64.13;98941.09;25119;1313;3055088;-63
2022/03/29 05:38:48;;;;;;;14.00;2.90;;;;;;;4.03;63.88;98945.58;25168;1313;3026835;-63
2022/03/29 05:41:20;;;;;;;;;;;;;;;4.20;63.28;98943.48;25143;1313;3069431;-63
2022/03/29 05:43:49;;;;;;;12.20;2.80;;;;;;;4.22;63.27;98940.95;25174;1313;3026426;-64
2022/03/29 05:49:06;;;;;;;15.00;2.90;;;;;;;4.35;63.20;98949.79;25149;1313;3071113;-61
2022/03/29 05:51:36;;;;;;;14.00;3.50;;;;;;;4.42;62.96;98938.34;25104;1313;3026531;-63
2022/03/29 05:54:06;;;;;;;30.70;3.60;;;;;;;4.52;62.92;98931.00;25140;1313;3026618;-64
2022/03/29 05:56:36;;;;;;;25.60;3.90;;;;;;;4.56;62.95;98918.14;25102;1313;3070320;-65
2022/03/29 05:59:07;;;;;;;19.20;3.00;;;;;;;4.63;62.90;98924.95;25138;1313;3026540;-64
2022/03/29 06:01:39;;;;;;;30.10;3.40;;;;;;;4.72;62.76;98921.80;25084;1313;3054616;-62
2022/03/29 06:04:08;;;;;;;13.90;3.50;;;;;;;4.80;62.61;98934.27;25079;1311;3026172;-64
2022/03/29 06:06:39;;;;;;;12.80;2.90;;;;;;;4.97;62.15;98912.31;25106;1313;3027083;-63
2022/03/29 06:09:08;;;;;;;22.00;3.80;;;;;;;5.04;61.99;98914.62;25173;1313;3026362;-63
2022/03/29 06:11:37;;;;;;;20.30;4.00;;;;;;;5.13;61.60;98904.60;25126;1311;3026820;-62
2022/03/29 06:14:06;;;;;;;22.40;4.30;;;;;;;5.24;61.39;98911.77;25135;1312;3051591;-63
2022/03/29 06:16:36;;;;;;;18.70;3.40;;;;;;;5.31;61.30;98908.80;25118;1313;3026332;-63
2022/03/29 06:19:05;;;;;;;13.30;3.60;;;;;;;5.56;60.82;98907.81;25127;1313;3026489;-64
2022/03/29 06:21:36;;;;;;;26.20;4.40;;;;;;;5.54;60.74;98911.33;25172;1313;3026263;-63
2022/03/29 06:24:07;;;;;;;22.90;2.90;;;;;;;5.59;60.69;98917.52;25100;1313;3030184;-63
2022/03/29 06:26:39;;;;;;;28.30;5.10;;;;;;;5.81;60.30;98902.06;25169;1313;3027051;-63
2022/03/29 06:29:08;;;;;;;27.10;4.00;;;;;;;5.99;59.90;98904.27;25111;1315;3026784;-63
2022/03/29 06:31:38;;;;;;;21.30;3.40;;;;;;;6.09;59.45;98908.64;25156;1313;3026707;-62
2022/03/29 06:34:07;;;;;;;16.50;3.80;;;;;;;6.10;59.57;98915.92;25162;1313;3026424;-63
2022/03/29 06:36:37;;;;;;;27.60;3.30;;;;;;;6.18;59.38;98916.35;25158;1313;3026455;-63
2022/03/29 06:39:07;;;;;;;26.50;3.80;;;;;;;6.33;58.91;98911.44;25110;1313;3026468;-63
2022/03/29 06:41:38;;;;;;;20.30;3.40;;;;;;;6.52;58.40;98905.94;25115;1313;3048531;-63
2022/03/29 06:44:08;;;;;;;13.80;3.30;;;;;;;6.66;57.77;98921.01;25139;1313;3027136;-63
2022/03/29 06:46:41;;;;;;;17.70;3.70;;;;;;;6.79;57.60;98911.25;25101;1313;3026519;-64
2022/03/29 06:49:11;;;;;;;23.90;3.40;;;;;;;6.97;57.23;98910.79;25136;1313;3026579;-64
2022/03/29 06:51:41;;;;;;;20.40;4.00;;;;;;;7.09;56.99;98899.20;25093;1312;3027281;-62
2022/03/29 06:54:10;;;;;;;21.70;4.00;;;;;;;7.22;56.50;98913.11;25098;1313;3026407;-62
2022/03/29 06:56:39;;;;;;;26.10;3.90;;;;;;;7.22;56.07;98913.10;25110;1312;3026770;-63
2022/03/29 06:59:08;;;;;;;23.90;3.70;;;;;;;7.28;55.88;98909.31;25124;1313;3026376;-63
2022/03/29 07:01:38;;;;;;;16.40;3.60;;;;;;;7.53;55.39;98894.48;25082;1313;3054962;-63
2022/03/29 07:04:08;;;;;;;28.50;4.60;;;;;;;7.59;55.13;98884.38;25133;1312;3026574;-63
2022/03/29 07:06:38;;;;;;;37.10;4.00;;;;;;;7.65;55.13;98889.61;25121;1312;3052220;-62
2022/03/29 07:11:55;;;;;;;20.90;3.70;;;;;;;7.90;54.35;98876.95;25144;1313;3059286;-64
2022/03/29 07:14:24;;;;;;;21.70;4.20;;;;;;;8.03;53.83;98863.83;25111;1313;3026795;-64
2022/03/29 07:16:54;;;;;;;13.10;2.90;;;;;;;8.17;53.44;98863.35;25116;1313;3026451;-64
2022/03/29 07:19:24;;;;;;;23.10;4.20;;;;;;;8.29;53.22;98856.86;25107;1312;3058845;-63
2022/03/29 07:21:56;;;;;;;36.60;5.80;;;;;;;8.44;52.94;98846.57;25149;1313;3026664;-64
2022/03/29 07:24:25;;;;;;;25.10;3.70;;;;;;;8.53;52.87;98851.08;25174;1313;3026146;-64
2022/03/29 07:26:55;;;;;;;30.70;4.50;;;;;;;8.49;52.58;98854.97;25130;1313;3026165;-64
2022/03/29 07:29:25;;;;;;;28.00;4.70;;;;;;;8.55;52.37;98858.84;25107;1313;3027299;-65
2022/03/29 07:31:55;;;;;;;18.70;3.70;;;;;;;8.59;52.26;98850.02;25162;1312;3055425;-64
2022/03/29 07:34:24;;;;;;;37.40;6.10;;;;;;;8.76;51.92;98843.70;25116;1313;3026494;-63
2022/03/29 07:36:56;;;;;;;29.40;4.00;;;;;;;8.93;51.55;98858.92;25071;1313;3052027;-63
2022/03/29 07:39:25;;;;;;;31.70;5.00;;;;;;;8.92;51.20;98863.66;25147;1313;3027279;-64
2022/03/29 07:41:55;;;;;;;18.00;4.10;;;;;;;8.92;50.82;98847.42;25085;1313;3026845;-63
2022/03/29 07:44:24;;;;;;;20.20;4.60;;;;;;;9.07;50.32;98851.18;25075;1313;3026927;-64
2022/03/29 07:46:53;;;;;;;18.50;3.80;;;;;;;9.18;49.96;98854.52;25159;1313;3029174;-64
2022/03/29 07:49:22;;;;;;;25.70;4.60;;;;;;;9.25;49.64;98857.20;25085;1312;3053575;-62
2022/03/29 07:51:51;;;;;;;33.10;4.00;;;;;;;9.33;49.58;98866.98;25123;1313;3026545;-65
2022/03/29 07:54:21;;;;;;;24.00;4.40;;;;;;;9.44;49.10;98846.02;25123;1313;3054656;-63
2022/03/29 07:56:50;;;;;;;19.80;4.10;;;;;;;9.53;49.12;98832.13;25135;1313;3026802;-62
2022/03/29 07:59:19;;;;;;;29.60;4.10;;;;;;;9.61;48.94;98823.75;25141;1313;3048856;-64
2022/03/29 08:01:48;;;;;;;19.50;4.20;;;;;;;9.74;48.55;98825.36;25090;1312;3026650;-64
2022/03/29 08:04:17;;;;;;;19.20;4.10;;;;;;;9.87;48.27;98820.23;25126;1312;3028223;-63
2022/03/29 08:06:47;;;;;;;21.90;3.70;;;;;;;10.04;48.16;98826.80;25154;1313;3049365;-63
2022/03/29 08:09:16;;;;;;;28.60;6.40;;;;;;;10.04;47.99;98829.25;25087;1312;3026515;-63
2022/03/29 08:11:45;;;;;;;20.10;4.00;;;;;;;10.04;47.68;98827.52;25180;1313;3058697;-63
2022/03/29 08:14:14;;;;;;;16.70;4.90;;;;;;;10.18;47.11;98829.14;25084;1312;3026339;-63
2022/03/29 08:16:43;;;;;;;22.90;4.30;;;;;;;10.33;46.57;98821.52;25112;1313;3054201;-63
2022/03/29 08:19:13;;;;;;;25.10;5.30;;;;;;;10.33;46.74;98815.56;25114;1312;3027758;-64
2022/03/29 08:21:49;;;;;;;19.10;4.50;;;;;;;10.43;46.97;98818.55;25136;1313;3056033;-63
2022/03/29 08:24:20;;;;;;;16.40;3.90;;;;;;;10.50;46.42;98828.54;25134;1313;3054278;-64
2022/03/29 08:26:52;;;;;;;39.10;5.40;;;;;;;10.65;45.88;98816.46;25110;1312;3027420;-63
2022/03/29 08:29:21;;;;;;;29.10;5.00;;;;;;;10.68;45.67;98820.80;25164;1312;3026233;-64
2022/03/29 08:31:52;;;;;;;26.60;5.00;;;;;;;10.81;45.89;98817.78;25140;1313;3027605;-64
2022/03/29 08:34:21;;;;;;;25.80;5.20;;;;;;;11.15;45.05;98823.02;25121;1313;3029462;-65
2022/03/29 08:36:52;;;;;;;25.80;4.80;;;;;;;11.31;44.42;98801.40;25061;1312;3026676;-65
2022/03/29 08:39:21;;;;;;;18.60;4.50;;;;;;;11.28;44.51;98824.88;25165;1313;3026569;-63
2022/03/29 08:42:10;;;;;;;20.70;4.20;;;;;;;11.11;44.94;98822.81;25101;1313;3026847;-62
2022/03/29 08:44:40;;;;;;;23.80;4.50;;;;;;;11.20;44.71;98804.78;25090;1313;3069102;-63
2022/03/29 08:47:10;;;;;;;36.80;5.20;;;;;;;11.34;43.93;98796.23;25101;1312;3026562;-65
2022/03/29 08:49:39;;;;;;;22.90;4.80;;;;;;;11.40;43.41;98805.64;25153;1313;3051778;-64
2022/03/29 08:52:08;;;;;;;27.60;4.40;;;;;;;11.48;44.04;98785.77;25068;1312;3026628;-63
2022/03/29 08:54:38;;;;;;;30.50;5.00;;;;;;;11.54;44.19;98784.58;25136;1312;3054547;-65
2022/03/29 08:57:08;;;;;;;21.90;5.00;;;;;;;11.80;43.62;98786.65;25106;1313;3026025;-64
2022/03/29 08:59:37;;;;;;;20.90;4.30;;;;;;;11.96;43.41;98770.02;25127;1313;3026910;-64
2022/03/29 09:02:10;;;;;;;29.30;6.30;;;;;;;12.07;43.27;98782.65;25132;1312;3054870;-63
2022/03/29 09:04:40;;;;;;;28.40;5.00;;;;;;;12.17;42.31;98780.30;25179;1312;3053649;-62
2022/03/29 09:07:10;;;;;;;26.10;4.80;;;;;;;12.37;41.74;98769.45;25151;1313;3026692;-63
2022/03/29 09:09:41;;;;;;;31.00;5.00;;;;;;;12.43;41.83;98794.84;25188;1313;3026500;-62
2022/03/29 09:12:20;;;;;;;25.90;5.40;;;;;;;12.51;41.40;98768.33;25109;1313;3053197;-63
2022/03/29 09:15:01;;;;;;;18.90;4.80;;;;;;;12.58;41.45;98765.89;25075;1312;3053497;-64
2022/03/29 09:17:35;;;;;;;29.80;5.50;;;;;;;12.71;41.28;98762.23;25122;1313;3029681;-63
2022/03/29 09:20:23;;;;;;;27.00;4.80;;;;;;;12.81;41.08;98769.32;25066;1313;3052420;-64
2022/03/29 09:22:55;;;;;;;19.10;5.20;;;;;;;12.77;40.42;98766.60;25136;1312;3055542;-65
2022/03/29 09:25:38;;;;;;;32.20;5.20;;;;;;;12.82;40.42;98762.58;25085;1312;3026480;-63
2022/03/29 09:28:13;;;;;;;34.00;5.40;;;;;;;12.81;40.69;98769.14;25088;1312;3069771;-62
2022/03/29 09:30:52;;;;;;;29.50;7.00;;;;;;;13.00;40.39;98759.16;25074;1312;3053252;-64
2022/03/29 09:33:41;;;;;;;35.90;5.00;;;;;;;13.27;40.10;98750.63;25136;1312;3053816;-63
2022/03/29 09:36:18;;;;;;;25.20;5.80;;;;;;;13.48;39.39;98747.51;25101;1313;3055325;-63
2022/03/29 09:38:48;;;;;;;27.20;5.20;;;;;;;13.64;39.30;98747.34;25148;1313;3057222;-64
2022/03/29 09:41:20;;;;;;;20.00;5.20;;;;;;;13.50;39.43;98749.25;25107;1312;3028487;-64
2022/03/29 09:44:07;;;;;;;32.50;5.30;;;;;;;13.65;39.09;98749.95;25112;1313;3055863;-62
2022/03/29 09:46:55;;;;;;;;;;;;;;;13.80;38.29;98736.35;25073;1312;3052893;-64
2022/03/29 09:49:24;;;;;;;26.40;5.20;;;;;;;13.77;38.08;98740.49;25060;1312;3066707;-62
2022/03/29 09:52:32;;;;;;;32.70;5.30;;;;;;;13.74;38.22;98732.59;25150;1312;3026486;-62
2022/03/29 09:55:15;;;;;;;22.40;5.60;;;;;;;14.08;37.70;98726.73;25026;1313;3055492;-63
2022/03/29 09:57:46;;;;;;;16.40;4.40;;;;;;;13.98;37.92;98719.86;25162;1312;3070053;-64
2022/03/29 10:00:23;;;;;;;23.30;4.80;;;;;;;14.16;37.56;98716.73;25076;1313;3026522;-63
2022/03/29 10:02:52;;;;;;;24.20;4.90;;;;;;;14.38;37.12;98712.30;25084;1312;3052798;-64
2022/03/29 10:05:22;;;;;;;19.40;4.90;;;;;;;14.40;36.57;98720.92;25107;1313;3026689;-63
2022/03/29 10:10:45;;;;;;;23.50;4.60;;;;;;;14.37;36.79;98711.14;25075;1312;3053828;-64
2022/03/29 10:13:16;;;;;;;24.00;4.70;;;;;;;14.38;37.09;98707.88;25176;1312;3028182;-64
2022/03/29 10:15:45;;;;;;;25.30;5.50;;;;;;;14.54;36.92;98704.55;25188;1313;3026439;-65
2022/03/29 10:18:15;;;;;;;17.50;5.00;;;;;;;14.61;36.49;98714.75;25203;1312;3026260;-69
2022/03/29 10:20:45;;;;;;;25.20;4.90;;;;;;;14.48;36.12;98717.08;25105;1312;3055348;-64
2022/03/29 10:23:15;;;;;;;16.80;5.20;;;;;;;14.44;35.56;98708.58;25155;1313;3026692;-62
2022/03/29 10:25:44;;;;;;;23.00;5.30;;;;;;;14.61;35.02;98702.03;25099;1313;3054232;-64
2022/03/29 10:28:14;;;;;;;23.40;4.80;;;;;;;14.88;34.52;98699.39;25071;1313;3026396;-64
2022/03/29 10:30:43;;;;;;;29.20;5.80;;;;;;;14.91;34.45;98703.77;25141;1313;3049093;-63
2022/03/29 10:33:16;;;;;;;24.10;5.30;;;;;;;14.93;34.77;98694.73;25064;1312;3026366;-65
2022/03/29 10:36:02;;;;;;;24.70;6.10;;;;;;;15.25;34.46;98684.40;25195;1312;3069236;-64
2022/03/29 10:38:43;;;;;;;18.60;4.80;;;;;;;15.58;34.29;98670.58;25087;1312;3050895;-62
2022/03/29 10:41:28;;;;;;;16.00;4.50;;;;;;;15.79;33.89;98679.98;25095;1313;3055047;-64
2022/03/29 10:44:14;;;;;;;29.00;5.00;;;;;;;15.77;33.77;98681.33;25102;1312;3055714;-64
2022/03/29 10:46:47;;;;;;;20.10;5.00;;;;;;;15.73;33.63;98671.27;25130;1312;3057292;-62
2022/03/29 10:49:24;;;;;;;29.00;5.80;;;;;;;15.82;33.10;98673.89;25179;1312;3049640;-63
2022/03/29 10:51:57;;;;;;;25.20;5.30;;;;;;;16.04;32.89;98667.84;25116;1313;3055665;-63
2022/03/29 10:54:29;;;;;;;36.40;5.40;;;;;;;15.87;32.44;98671.30;25184;1312;3026700;-64
2022/03/29 10:57:06;;;;;;;29.10;5.30;;;;;;;15.68;32.61;98673.39;25142;1312;3026789;-63
2022/03/29 10:59:40;;;;;;;22.20;4.80;;;;;;;15.67;33.61;98668.17;25107;1312;3049428;-63
2022/03/29 11:02:19;;;;;;;26.80;5.40;;;;;;;15.91;33.43;98652.48;25101;1313;3028411;-63
2022/03/29 11:05:07;;;;;;;21.30;6.10;;;;;;;16.20;32.62;98650.66;25157;1313;3071399;-64
2022/03/29 11:07:52;;;;;;;25.30;5.60;;;;;;;16.18;32.79;98644.67;25137;1313;3050356;-62
2022/03/29 11:10:23;;;;;;;26.20;5.50;;;;;;;16.36;32.89;98646.29;25113;1312;3055403;-63
2022/03/29 11:12:53;;;;;;;35.70;6.40;;;;;;;16.16;33.32;98639.92;25115;1313;3026531;-65
2022/03/29 11:15:35;;;;;;;36.80;5.80;;;;;;;16.06;33.52;98632.70;25161;1313;3026802;-65
2022/03/29 11:18:32;;;;;;;27.20;5.90;;;;;;;16.11;33.62;98631.17;25185;1312;3050374;-63
2022/03/29 11:21:28;;;;;;;26.80;5.30;;;;;;;15.83;33.91;98631.92;25180;1315;3055996;-62
2022/03/29 11:23:59;;;;;;;21.80;5.20;;;;;;;15.61;34.08;98631.11;25112;1312;3052114;-62
2022/03/29 11:26:28;;;;;;;28.60;6.10;;;;;;;15.74;34.08;98620.79;25109;1313;3026630;-63
2022/03/29 11:28:59;;;;;;;31.40;6.70;;;;;;;15.86;34.03;98629.34;25066;1315;3026607;-62
2022/03/29 11:31:38;;;;;;;33.50;5.90;;;;;;;15.86;34.03;98626.86;25130;1313;3026435;-63
2022/03/29 11:34:09;;;;;;;36.60;5.80;;;;;;;15.90;33.99;98628.98;25130;1313;3054680;-65
2022/03/29 11:36:40;;;;;;;35.60;6.40;;;;;;;15.82;33.97;98623.16;25087;1312;3028242;-62
2022/03/29 11:39:25;;;;;;;31.60;6.70;;;;;;;15.91;33.91;98622.36;25100;1313;3026575;-63
2022/03/29 11:41:54;;;;;;;;;;;;;;;15.81;34.46;98613.21;25131;1313;3053572;-61
2022/03/29 11:44:25;;;;;;;22.60;5.80;;;;;;;15.82;34.68;98612.40;25158;1313;3026493;-63
2022/03/29 11:46:56;;;;;;;32.90;6.00;;;;;;;16.02;34.17;98600.29;25085;1313;3031346;-63